East Fishkill, New York
Current Conditions -  °F | °C
As of 2:53 PM on Thursday 30 Oct 2014 (Local Time) from KPOU Reporting Station
Overcast Overcast  
Wind Chill: 56°   Ceiling: 5500
Heat Index: 56°   Visibility: 10mi
Dew Point: 35°   Wind: 7mph
Humidity: 45%   Direction: 300°WNW
Pressure: 29.96"   Gusts: NA
Location:  41.562°N, 73.7865°W
Report Text: KPOU 301853Z 30006KT 10SM OVC055 13/02 A2996 RMK AO2 SLP142 T01330017
Loading
Personal Weather Stations






























Interactive Weather Map
Tropical Storm Tracking
New forecast layout! Learn more

10-Day Weather Forecast

Advertisements
Track Severe Weather on mobile